sensor_id;sensor_type;location;lat;lon;timestamp;P1;durP1;ratioP1;P2;durP2;ratioP2
70199;SDS011;57587;55.688;37.600;2024-01-30T00:01:21;13.60;;;7.40;;
70199;SDS011;57587;55.688;37.600;2024-01-30T00:03:49;10.38;;;6.45;;
70199;SDS011;57587;55.688;37.600;2024-01-30T00:06:20;14.38;;;6.13;;
70199;SDS011;57587;55.688;37.600;2024-01-30T00:08:48;14.15;;;7.40;;
70199;SDS011;57587;55.688;37.600;2024-01-30T00:11:15;13.98;;;7.43;;
70199;SDS011;57587;55.688;37.600;2024-01-30T00:13:42;14.10;;;6.90;;
70199;SDS011;57587;55.688;37.600;2024-01-30T00:16:19;12.68;;;6.47;;
70199;SDS011;57587;55.688;37.600;2024-01-30T00:18:53;12.23;;;6.85;;
70199;SDS011;57587;55.688;37.600;2024-01-30T00:21:21;15.13;;;6.85;;
70199;SDS011;57587;55.688;37.600;2024-01-30T00:23:48;12.10;;;6.47;;
70199;SDS011;57587;55.688;37.600;2024-01-30T00:26:16;12.03;;;6.93;;
70199;SDS011;57587;55.688;37.600;2024-01-30T00:28:43;15.23;;;6.68;;
70199;SDS011;57587;55.688;37.600;2024-01-30T00:31:11;11.23;;;6.10;;
70199;SDS011;57587;55.688;37.600;2024-01-30T00:33:39;13.57;;;7.00;;
70199;SDS011;57587;55.688;37.600;2024-01-30T00:36:08;12.90;;;6.47;;
70199;SDS011;57587;55.688;37.600;2024-01-30T00:38:37;14.53;;;7.33;;
70199;SDS011;57587;55.688;37.600;2024-01-30T00:41:04;10.68;;;6.32;;
70199;SDS011;57587;55.688;37.600;2024-01-30T00:43:31;12.88;;;6.93;;
70199;SDS011;57587;55.688;37.600;2024-01-30T00:45:58;12.25;;;6.88;;
70199;SDS011;57587;55.688;37.600;2024-01-30T00:48:26;12.50;;;6.78;;
70199;SDS011;57587;55.688;37.600;2024-01-30T00:50:53;11.60;;;6.73;;
70199;SDS011;57587;55.688;37.600;2024-01-30T00:53:20;11.88;;;6.82;;
70199;SDS011;57587;55.688;37.600;2024-01-30T00:55:48;14.35;;;7.38;;
70199;SDS011;57587;55.688;37.600;2024-01-30T00:58:15;13.70;;;6.82;;
70199;SDS011;57587;55.688;37.600;2024-01-30T01:00:42;14.27;;;7.38;;
70199;SDS011;57587;55.688;37.600;2024-01-30T01:03:09;15.07;;;7.30;;
70199;SDS011;57587;55.688;37.600;2024-01-30T01:05:37;13.43;;;6.90;;
70199;SDS011;57587;55.688;37.600;2024-01-30T01:08:04;13.15;;;7.18;;
70199;SDS011;57587;55.688;37.600;2024-01-30T01:10:31;13.55;;;6.53;;
70199;SDS011;57587;55.688;37.600;2024-01-30T01:12:58;14.32;;;7.07;;
70199;SDS011;57587;55.688;37.600;2024-01-30T01:15:26;14.20;;;7.23;;
70199;SDS011;57587;55.688;37.600;2024-01-30T01:17:56;12.48;;;6.65;;
70199;SDS011;57587;55.688;37.600;2024-01-30T01:20:23;13.55;;;6.60;;
70199;SDS011;57587;55.688;37.600;2024-01-30T01:22:50;11.60;;;6.47;;
70199;SDS011;57587;55.688;37.600;2024-01-30T01:25:19;14.93;;;6.72;;
70199;SDS011;57587;55.688;37.600;2024-01-30T01:27:46;13.63;;;6.57;;
70199;SDS011;57587;55.688;37.600;2024-01-30T01:30:18;13.63;;;7.78;;
70199;SDS011;57587;55.688;37.600;2024-01-30T01:32:49;12.70;;;7.47;;
70199;SDS011;57587;55.688;37.600;2024-01-30T01:35:28;13.02;;;6.53;;
70199;SDS011;57587;55.688;37.600;2024-01-30T01:37:55;14.50;;;7.17;;
70199;SDS011;57587;55.688;37.600;2024-01-30T01:40:23;12.75;;;6.70;;
70199;SDS011;57587;55.688;37.600;2024-01-30T01:42:51;15.05;;;7.32;;
70199;SDS011;57587;55.688;37.600;2024-01-30T01:45:19;12.07;;;6.38;;
70199;SDS011;57587;55.688;37.600;2024-01-30T01:47:48;14.13;;;7.43;;
70199;SDS011;57587;55.688;37.600;2024-01-30T01:50:19;15.57;;;7.50;;
70199;SDS011;57587;55.688;37.600;2024-01-30T01:52:48;14.68;;;6.97;;
70199;SDS011;57587;55.688;37.600;2024-01-30T01:55:16;16.30;;;7.32;;
70199;SDS011;57587;55.688;37.600;2024-01-30T01:57:48;14.23;;;7.00;;
70199;SDS011;57587;55.688;37.600;2024-01-30T02:00:15;13.75;;;7.30;;
70199;SDS011;57587;55.688;37.600;2024-01-30T02:02:43;12.97;;;6.57;;
70199;SDS011;57587;55.688;37.600;2024-01-30T02:05:12;13.50;;;7.32;;
70199;SDS011;57587;55.688;37.600;2024-01-30T02:07:40;10.93;;;6.60;;
70199;SDS011;57587;55.688;37.600;2024-01-30T02:10:08;16.15;;;7.20;;
70199;SDS011;57587;55.688;37.600;2024-01-30T02:12:37;12.32;;;7.03;;
70199;SDS011;57587;55.688;37.600;2024-01-30T02:15:04;14.43;;;7.30;;
70199;SDS011;57587;55.688;37.600;2024-01-30T02:17:39;11.27;;;6.10;;
70199;SDS011;57587;55.688;37.600;2024-01-30T02:20:06;11.25;;;6.95;;
70199;SDS011;57587;55.688;37.600;2024-01-30T02:22:34;11.95;;;6.93;;
70199;SDS011;57587;55.688;37.600;2024-01-30T02:25:03;14.25;;;7.15;;
70199;SDS011;57587;55.688;37.600;2024-01-30T02:27:30;13.00;;;7.73;;
70199;SDS011;57587;55.688;37.600;2024-01-30T02:29:57;12.65;;;6.50;;
70199;SDS011;57587;55.688;37.600;2024-01-30T02:32:24;13.68;;;7.18;;
70199;SDS011;57587;55.688;37.600;2024-01-30T02:34:52;13.98;;;7.78;;
70199;SDS011;57587;55.688;37.600;2024-01-30T02:37:19;13.63;;;7.80;;
70199;SDS011;57587;55.688;37.600;2024-01-30T02:39:46;14.53;;;7.40;;
70199;SDS011;57587;55.688;37.600;2024-01-30T02:42:13;11.27;;;6.45;;
70199;SDS011;57587;55.688;37.600;2024-01-30T02:44:40;14.48;;;7.72;;
70199;SDS011;57587;55.688;37.600;2024-01-30T02:47:07;13.15;;;7.45;;
70199;SDS011;57587;55.688;37.600;2024-01-30T02:49:34;14.52;;;7.95;;
70199;SDS011;57587;55.688;37.600;2024-01-30T02:52:02;13.93;;;7.60;;
70199;SDS011;57587;55.688;37.600;2024-01-30T02:54:29;14.30;;;6.82;;
70199;SDS011;57587;55.688;37.600;2024-01-30T02:56:57;14.38;;;8.15;;
70199;SDS011;57587;55.688;37.600;2024-01-30T02:59:24;15.57;;;8.13;;
70199;SDS011;57587;55.688;37.600;2024-01-30T03:01:51;12.95;;;6.75;;
70199;SDS011;57587;55.688;37.600;2024-01-30T03:04:20;15.47;;;7.33;;
70199;SDS011;57587;55.688;37.600;2024-01-30T03:06:47;14.80;;;7.78;;
70199;SDS011;57587;55.688;37.600;2024-01-30T03:09:18;16.60;;;7.85;;
70199;SDS011;57587;55.688;37.600;2024-01-30T03:11:45;12.20;;;7.10;;
70199;SDS011;57587;55.688;37.600;2024-01-30T03:14:12;13.20;;;6.60;;
70199;SDS011;57587;55.688;37.600;2024-01-30T03:16:39;11.87;;;7.23;;
70199;SDS011;57587;55.688;37.600;2024-01-30T03:19:07;16.73;;;8.90;;
70199;SDS011;57587;55.688;37.600;2024-01-30T03:21:37;12.95;;;7.63;;
70199;SDS011;57587;55.688;37.600;2024-01-30T03:24:04;14.52;;;7.18;;
70199;SDS011;57587;55.688;37.600;2024-01-30T03:26:32;14.15;;;7.65;;
70199;SDS011;57587;55.688;37.600;2024-01-30T03:28:59;11.90;;;6.90;;
70199;SDS011;57587;55.688;37.600;2024-01-30T03:31:26;15.48;;;7.75;;
70199;SDS011;57587;55.688;37.600;2024-01-30T03:33:53;12.23;;;6.72;;
70199;SDS011;57587;55.688;37.600;2024-01-30T03:36:21;14.32;;;7.10;;
70199;SDS011;57587;55.688;37.600;2024-01-30T03:38:48;12.50;;;7.57;;
70199;SDS011;57587;55.688;37.600;2024-01-30T03:41:15;17.50;;;7.20;;
70199;SDS011;57587;55.688;37.600;2024-01-30T03:43:42;14.73;;;7.68;;
70199;SDS011;57587;55.688;37.600;2024-01-30T03:46:11;12.30;;;6.53;;
70199;SDS011;57587;55.688;37.600;2024-01-30T03:48:38;13.80;;;7.18;;
70199;SDS011;57587;55.688;37.600;2024-01-30T03:51:06;11.40;;;6.75;;
70199;SDS011;57587;55.688;37.600;2024-01-30T03:53:33;16.80;;;7.17;;
70199;SDS011;57587;55.688;37.600;2024-01-30T03:56:00;13.90;;;7.03;;
70199;SDS011;57587;55.688;37.600;2024-01-30T03:58:27;15.85;;;7.43;;
70199;SDS011;57587;55.688;37.600;2024-01-30T04:00:54;13.25;;;7.28;;
70199;SDS011;57587;55.688;37.600;2024-01-30T04:03:22;13.93;;;7.10;;
70199;SDS011;57587;55.688;37.600;2024-01-30T04:05:49;14.73;;;8.00;;
70199;SDS011;57587;55.688;37.600;2024-01-30T04:08:16;12.95;;;7.13;;
70199;SDS011;57587;55.688;37.600;2024-01-30T04:10:43;14.77;;;7.28;;
70199;SDS011;57587;55.688;37.600;2024-01-30T04:13:10;13.20;;;7.47;;
70199;SDS011;57587;55.688;37.600;2024-01-30T04:15:38;14.48;;;7.43;;
70199;SDS011;57587;55.688;37.600;2024-01-30T04:18:06;13.27;;;6.63;;
70199;SDS011;57587;55.688;37.600;2024-01-30T04:20:45;14.50;;;6.78;;
70199;SDS011;57587;55.688;37.600;2024-01-30T04:23:13;12.70;;;7.30;;
70199;SDS011;57587;55.688;37.600;2024-01-30T04:25:40;14.60;;;6.97;;
70199;SDS011;57587;55.688;37.600;2024-01-30T04:28:07;13.63;;;6.88;;
70199;SDS011;57587;55.688;37.600;2024-01-30T04:30:34;17.17;;;7.73;;
70199;SDS011;57587;55.688;37.600;2024-01-30T04:33:01;15.57;;;7.40;;
70199;SDS011;57587;55.688;37.600;2024-01-30T04:35:29;15.00;;;8.68;;
70199;SDS011;57587;55.688;37.600;2024-01-30T04:37:56;16.17;;;9.15;;
70199;SDS011;57587;55.688;37.600;2024-01-30T04:40:23;14.23;;;7.03;;
70199;SDS011;57587;55.688;37.600;2024-01-30T04:42:50;13.67;;;7.63;;
70199;SDS011;57587;55.688;37.600;2024-01-30T04:45:18;11.32;;;7.63;;
70199;SDS011;57587;55.688;37.600;2024-01-30T04:47:45;13.60;;;7.78;;
70199;SDS011;57587;55.688;37.600;2024-01-30T04:50:13;14.45;;;7.43;;
70199;SDS011;57587;55.688;37.600;2024-01-30T04:52:40;15.65;;;7.60;;
70199;SDS011;57587;55.688;37.600;2024-01-30T04:55:07;15.97;;;6.87;;
70199;SDS011;57587;55.688;37.600;2024-01-30T04:57:34;13.15;;;6.68;;
70199;SDS011;57587;55.688;37.600;2024-01-30T05:00:02;14.52;;;7.18;;
70199;SDS011;57587;55.688;37.600;2024-01-30T05:02:30;12.50;;;6.82;;
70199;SDS011;57587;55.688;37.600;2024-01-30T05:04:57;15.90;;;7.45;;
70199;SDS011;57587;55.688;37.600;2024-01-30T05:07:25;16.67;;;7.53;;
70199;SDS011;57587;55.688;37.600;2024-01-30T05:09:53;14.60;;;7.53;;
70199;SDS011;57587;55.688;37.600;2024-01-30T05:12:25;15.45;;;7.78;;
70199;SDS011;57587;55.688;37.600;2024-01-30T05:14:52;17.05;;;7.25;;
70199;SDS011;57587;55.688;37.600;2024-01-30T05:17:20;15.38;;;7.55;;
70199;SDS011;57587;55.688;37.600;2024-01-30T05:19:47;13.17;;;7.20;;
70199;SDS011;57587;55.688;37.600;2024-01-30T05:22:14;13.57;;;6.75;;
70199;SDS011;57587;55.688;37.600;2024-01-30T05:24:42;12.55;;;7.10;;
70199;SDS011;57587;55.688;37.600;2024-01-30T05:27:10;14.93;;;7.30;;
70199;SDS011;57587;55.688;37.600;2024-01-30T05:29:37;16.65;;;7.70;;
70199;SDS011;57587;55.688;37.600;2024-01-30T05:32:04;12.77;;;7.00;;
70199;SDS011;57587;55.688;37.600;2024-01-30T05:34:32;10.98;;;7.00;;
70199;SDS011;57587;55.688;37.600;2024-01-30T05:37:00;12.90;;;8.18;;
70199;SDS011;57587;55.688;37.600;2024-01-30T05:39:28;14.43;;;7.72;;
70199;SDS011;57587;55.688;37.600;2024-01-30T05:41:55;13.45;;;7.43;;
70199;SDS011;57587;55.688;37.600;2024-01-30T05:44:22;13.97;;;7.47;;
70199;SDS011;57587;55.688;37.600;2024-01-30T05:46:49;14.45;;;7.40;;
70199;SDS011;57587;55.688;37.600;2024-01-30T05:49:16;14.77;;;7.90;;
70199;SDS011;57587;55.688;37.600;2024-01-30T05:51:43;12.27;;;7.50;;
70199;SDS011;57587;55.688;37.600;2024-01-30T05:54:11;16.00;;;7.13;;
70199;SDS011;57587;55.688;37.600;2024-01-30T05:56:41;16.20;;;7.30;;
70199;SDS011;57587;55.688;37.600;2024-01-30T05:59:08;13.93;;;7.35;;
70199;SDS011;57587;55.688;37.600;2024-01-30T06:01:35;14.25;;;7.63;;
70199;SDS011;57587;55.688;37.600;2024-01-30T06:04:02;15.63;;;7.25;;
70199;SDS011;57587;55.688;37.600;2024-01-30T06:06:30;12.85;;;7.25;;
70199;SDS011;57587;55.688;37.600;2024-01-30T06:08:57;13.47;;;7.10;;
70199;SDS011;57587;55.688;37.600;2024-01-30T06:11:24;17.60;;;7.22;;
70199;SDS011;57587;55.688;37.600;2024-01-30T06:13:51;16.00;;;8.23;;
70199;SDS011;57587;55.688;37.600;2024-01-30T06:16:18;13.32;;;7.43;;
70199;SDS011;57587;55.688;37.600;2024-01-30T06:18:48;16.58;;;7.70;;
70199;SDS011;57587;55.688;37.600;2024-01-30T06:21:15;14.83;;;7.13;;
70199;SDS011;57587;55.688;37.600;2024-01-30T06:23:42;13.32;;;7.13;;
70199;SDS011;57587;55.688;37.600;2024-01-30T06:26:09;14.50;;;7.30;;
70199;SDS011;57587;55.688;37.600;2024-01-30T06:28:37;15.55;;;6.90;;
70199;SDS011;57587;55.688;37.600;2024-01-30T06:31:04;16.17;;;8.20;;
70199;SDS011;57587;55.688;37.600;2024-01-30T06:33:31;15.07;;;7.23;;
70199;SDS011;57587;55.688;37.600;2024-01-30T06:35:58;15.57;;;7.82;;
70199;SDS011;57587;55.688;37.600;2024-01-30T06:38:26;16.83;;;7.15;;
70199;SDS011;57587;55.688;37.600;2024-01-30T06:40:53;15.73;;;7.97;;
70199;SDS011;57587;55.688;37.600;2024-01-30T06:43:20;21.15;;;7.70;;
70199;SDS011;57587;55.688;37.600;2024-01-30T06:45:49;16.27;;;7.20;;
70199;SDS011;57587;55.688;37.600;2024-01-30T06:48:17;18.52;;;8.93;;
70199;SDS011;57587;55.688;37.600;2024-01-30T06:50:44;15.63;;;8.75;;
70199;SDS011;57587;55.688;37.600;2024-01-30T06:53:12;17.70;;;8.27;;
70199;SDS011;57587;55.688;37.600;2024-01-30T06:55:39;14.40;;;7.40;;
70199;SDS011;57587;55.688;37.600;2024-01-30T06:58:06;14.97;;;7.03;;
70199;SDS011;57587;55.688;37.600;2024-01-30T07:00:33;13.73;;;7.22;;
70199;SDS011;57587;55.688;37.600;2024-01-30T07:03:00;17.77;;;8.13;;
70199;SDS011;57587;55.688;37.600;2024-01-30T07:05:27;15.90;;;7.38;;
70199;SDS011;57587;55.688;37.600;2024-01-30T07:07:55;15.20;;;7.97;;
70199;SDS011;57587;55.688;37.600;2024-01-30T07:10:22;19.33;;;8.27;;
70199;SDS011;57587;55.688;37.600;2024-01-30T07:12:49;15.43;;;7.72;;
70199;SDS011;57587;55.688;37.600;2024-01-30T07:15:16;17.90;;;8.18;;
70199;SDS011;57587;55.688;37.600;2024-01-30T07:17:46;14.32;;;8.02;;
70199;SDS011;57587;55.688;37.600;2024-01-30T07:20:13;13.52;;;8.05;;
70199;SDS011;57587;55.688;37.600;2024-01-30T07:22:43;14.23;;;7.53;;
70199;SDS011;57587;55.688;37.600;2024-01-30T07:25:11;17.67;;;7.72;;
70199;SDS011;57587;55.688;37.600;2024-01-30T07:27:38;17.13;;;7.70;;
70199;SDS011;57587;55.688;37.600;2024-01-30T07:30:06;15.02;;;8.30;;
70199;SDS011;57587;55.688;37.600;2024-01-30T07:32:33;17.65;;;8.00;;
70199;SDS011;57587;55.688;37.600;2024-01-30T07:35:00;17.37;;;7.70;;
70199;SDS011;57587;55.688;37.600;2024-01-30T07:37:34;16.10;;;8.18;;
70199;SDS011;57587;55.688;37.600;2024-01-30T07:40:02;17.52;;;8.70;;
70199;SDS011;57587;55.688;37.600;2024-01-30T07:42:31;17.88;;;8.32;;
70199;SDS011;57587;55.688;37.600;2024-01-30T07:44:58;13.20;;;7.85;;
70199;SDS011;57587;55.688;37.600;2024-01-30T07:47:25;19.73;;;8.83;;
70199;SDS011;57587;55.688;37.600;2024-01-30T07:49:52;18.40;;;8.68;;
70199;SDS011;57587;55.688;37.600;2024-01-30T07:52:21;11.95;;;7.32;;
70199;SDS011;57587;55.688;37.600;2024-01-30T07:54:48;15.75;;;8.45;;
70199;SDS011;57587;55.688;37.600;2024-01-30T07:57:16;16.35;;;8.10;;
70199;SDS011;57587;55.688;37.600;2024-01-30T07:59:44;18.43;;;9.30;;
70199;SDS011;57587;55.688;37.600;2024-01-30T08:02:12;18.45;;;9.00;;
70199;SDS011;57587;55.688;37.600;2024-01-30T08:04:40;18.92;;;9.10;;
70199;SDS011;57587;55.688;37.600;2024-01-30T08:07:07;16.50;;;8.93;;
70199;SDS011;57587;55.688;37.600;2024-01-30T08:09:35;15.93;;;8.93;;
70199;SDS011;57587;55.688;37.600;2024-01-30T08:12:02;30.40;;;14.40;;
70199;SDS011;57587;55.688;37.600;2024-01-30T08:14:29;15.82;;;8.82;;
70199;SDS011;57587;55.688;37.600;2024-01-30T08:16:57;19.02;;;8.98;;
70199;SDS011;57587;55.688;37.600;2024-01-30T08:19:24;15.48;;;8.45;;
70199;SDS011;57587;55.688;37.600;2024-01-30T08:21:51;17.58;;;8.43;;
70199;SDS011;57587;55.688;37.600;2024-01-30T08:24:18;17.40;;;8.93;;
70199;SDS011;57587;55.688;37.600;2024-01-30T08:26:48;18.45;;;8.52;;
70199;SDS011;57587;55.688;37.600;2024-01-30T08:29:18;15.40;;;8.30;;
70199;SDS011;57587;55.688;37.600;2024-01-30T08:31:46;19.00;;;8.45;;
70199;SDS011;57587;55.688;37.600;2024-01-30T08:34:13;16.05;;;7.75;;
70199;SDS011;57587;55.688;37.600;2024-01-30T08:36:40;18.33;;;8.23;;
70199;SDS011;57587;55.688;37.600;2024-01-30T08:39:07;16.80;;;8.25;;
70199;SDS011;57587;55.688;37.600;2024-01-30T08:41:35;16.13;;;8.48;;
70199;SDS011;57587;55.688;37.600;2024-01-30T08:44:02;14.18;;;8.50;;
70199;SDS011;57587;55.688;37.600;2024-01-30T08:46:31;15.27;;;8.13;;
70199;SDS011;57587;55.688;37.600;2024-01-30T08:48:58;28.27;;;10.63;;
70199;SDS011;57587;55.688;37.600;2024-01-30T08:51:26;18.20;;;9.85;;
70199;SDS011;57587;55.688;37.600;2024-01-30T08:53:53;16.42;;;8.80;;
70199;SDS011;57587;55.688;37.600;2024-01-30T08:56:21;17.27;;;9.02;;
70199;SDS011;57587;55.688;37.600;2024-01-30T08:58:48;17.25;;;8.73;;
70199;SDS011;57587;55.688;37.600;2024-01-30T09:01:15;19.10;;;9.10;;
70199;SDS011;57587;55.688;37.600;2024-01-30T09:03:42;20.42;;;8.98;;
70199;SDS011;57587;55.688;37.600;2024-01-30T09:06:12;19.90;;;8.88;;
70199;SDS011;57587;55.688;37.600;2024-01-30T09:08:39;19.52;;;9.45;;
70199;SDS011;57587;55.688;37.600;2024-01-30T09:11:11;14.05;;;7.88;;
70199;SDS011;57587;55.688;37.600;2024-01-30T09:13:41;21.67;;;9.27;;
70199;SDS011;57587;55.688;37.600;2024-01-30T09:16:09;18.25;;;8.60;;
70199;SDS011;57587;55.688;37.600;2024-01-30T09:18:36;18.88;;;8.88;;
70199;SDS011;57587;55.688;37.600;2024-01-30T09:21:03;15.15;;;8.30;;
70199;SDS011;57587;55.688;37.600;2024-01-30T09:23:31;16.77;;;8.98;;
70199;SDS011;57587;55.688;37.600;2024-01-30T09:25:58;17.37;;;9.10;;
70199;SDS011;57587;55.688;37.600;2024-01-30T09:28:27;19.27;;;8.90;;
70199;SDS011;57587;55.688;37.600;2024-01-30T09:30:57;19.77;;;9.77;;
70199;SDS011;57587;55.688;37.600;2024-01-30T09:33:29;17.95;;;8.40;;
70199;SDS011;57587;55.688;37.600;2024-01-30T09:35:56;23.30;;;9.82;;
70199;SDS011;57587;55.688;37.600;2024-01-30T09:38:23;17.97;;;9.07;;
70199;SDS011;57587;55.688;37.600;2024-01-30T09:40:54;19.90;;;9.15;;
70199;SDS011;57587;55.688;37.600;2024-01-30T09:43:25;15.80;;;8.98;;
70199;SDS011;57587;55.688;37.600;2024-01-30T09:45:57;19.70;;;9.13;;
70199;SDS011;57587;55.688;37.600;2024-01-30T09:48:25;15.63;;;8.77;;
70199;SDS011;57587;55.688;37.600;2024-01-30T09:50:53;19.47;;;9.57;;
70199;SDS011;57587;55.688;37.600;2024-01-30T09:53:21;20.77;;;9.10;;
70199;SDS011;57587;55.688;37.600;2024-01-30T09:55:50;17.58;;;8.98;;
70199;SDS011;57587;55.688;37.600;2024-01-30T09:58:17;18.63;;;8.88;;
70199;SDS011;57587;55.688;37.600;2024-01-30T10:00:44;17.10;;;8.98;;
70199;SDS011;57587;55.688;37.600;2024-01-30T10:03:12;21.07;;;8.73;;
70199;SDS011;57587;55.688;37.600;2024-01-30T10:05:41;16.20;;;8.50;;
70199;SDS011;57587;55.688;37.600;2024-01-30T10:08:17;17.63;;;9.18;;
70199;SDS011;57587;55.688;37.600;2024-01-30T10:10:46;17.95;;;8.93;;
70199;SDS011;57587;55.688;37.600;2024-01-30T10:13:14;20.20;;;9.45;;
70199;SDS011;57587;55.688;37.600;2024-01-30T10:15:41;19.90;;;8.73;;
70199;SDS011;57587;55.688;37.600;2024-01-30T10:18:09;20.30;;;8.90;;
70199;SDS011;57587;55.688;37.600;2024-01-30T10:20:37;17.40;;;8.48;;
70199;SDS011;57587;55.688;37.600;2024-01-30T10:23:08;18.50;;;9.35;;
70199;SDS011;57587;55.688;37.600;2024-01-30T10:25:35;22.40;;;8.85;;
70199;SDS011;57587;55.688;37.600;2024-01-30T10:28:04;17.13;;;8.73;;
70199;SDS011;57587;55.688;37.600;2024-01-30T10:30:32;22.30;;;8.75;;
70199;SDS011;57587;55.688;37.600;2024-01-30T10:32:59;16.98;;;8.80;;
70199;SDS011;57587;55.688;37.600;2024-01-30T10:35:26;18.83;;;9.05;;
70199;SDS011;57587;55.688;37.600;2024-01-30T10:37:53;22.00;;;9.50;;
70199;SDS011;57587;55.688;37.600;2024-01-30T10:40:27;19.10;;;9.67;;
70199;SDS011;57587;55.688;37.600;2024-01-30T10:42:55;18.40;;;9.13;;
70199;SDS011;57587;55.688;37.600;2024-01-30T10:45:23;19.27;;;9.45;;
70199;SDS011;57587;55.688;37.600;2024-01-30T10:47:55;20.13;;;9.40;;
70199;SDS011;57587;55.688;37.600;2024-01-30T10:50:25;17.58;;;9.18;;
70199;SDS011;57587;55.688;37.600;2024-01-30T10:52:54;19.97;;;9.53;;
70199;SDS011;57587;55.688;37.600;2024-01-30T10:55:22;18.70;;;9.27;;
70199;SDS011;57587;55.688;37.600;2024-01-30T10:57:57;16.77;;;9.45;;
70199;SDS011;57587;55.688;37.600;2024-01-30T11:00:26;17.00;;;8.77;;
70199;SDS011;57587;55.688;37.600;2024-01-30T11:02:53;19.70;;;9.38;;
70199;SDS011;57587;55.688;37.600;2024-01-30T11:05:25;18.33;;;9.53;;
70199;SDS011;57587;55.688;37.600;2024-01-30T11:08:14;23.27;;;9.48;;
70199;SDS011;57587;55.688;37.600;2024-01-30T11:10:45;18.13;;;9.18;;
70199;SDS011;57587;55.688;37.600;2024-01-30T11:13:13;24.30;;;9.70;;
70199;SDS011;57587;55.688;37.600;2024-01-30T11:15:41;19.08;;;8.95;;
70199;SDS011;57587;55.688;37.600;2024-01-30T11:18:09;18.90;;;9.50;;
70199;SDS011;57587;55.688;37.600;2024-01-30T11:20:37;17.05;;;9.48;;
70199;SDS011;57587;55.688;37.600;2024-01-30T11:23:04;22.48;;;9.35;;
70199;SDS011;57587;55.688;37.600;2024-01-30T11:25:35;16.38;;;8.77;;
70199;SDS011;57587;55.688;37.600;2024-01-30T11:28:03;18.75;;;9.27;;
70199;SDS011;57587;55.688;37.600;2024-01-30T11:30:31;15.87;;;9.17;;
70199;SDS011;57587;55.688;37.600;2024-01-30T11:38:09;18.98;;;9.30;;
70199;SDS011;57587;55.688;37.600;2024-01-30T11:40:40;17.17;;;9.68;;
70199;SDS011;57587;55.688;37.600;2024-01-30T11:43:08;16.93;;;9.57;;
70199;SDS011;57587;55.688;37.600;2024-01-30T11:45:38;18.88;;;9.88;;
70199;SDS011;57587;55.688;37.600;2024-01-30T11:48:06;18.10;;;9.77;;
70199;SDS011;57587;55.688;37.600;2024-01-30T11:50:38;15.25;;;8.75;;
70199;SDS011;57587;55.688;37.600;2024-01-30T11:53:07;19.95;;;9.07;;
70199;SDS011;57587;55.688;37.600;2024-01-30T11:55:35;21.23;;;9.90;;
70199;SDS011;57587;55.688;37.600;2024-01-30T11:58:04;19.15;;;8.85;;
70199;SDS011;57587;55.688;37.600;2024-01-30T12:00:32;18.80;;;9.77;;
70199;SDS011;57587;55.688;37.600;2024-01-30T12:03:01;22.98;;;9.73;;
70199;SDS011;57587;55.688;37.600;2024-01-30T12:05:30;17.65;;;9.52;;
70199;SDS011;57587;55.688;37.600;2024-01-30T12:07:58;18.50;;;8.70;;
70199;SDS011;57587;55.688;37.600;2024-01-30T12:10:27;17.23;;;9.80;;
70199;SDS011;57587;55.688;37.600;2024-01-30T12:12:55;21.70;;;10.30;;
70199;SDS011;57587;55.688;37.600;2024-01-30T12:15:24;17.65;;;9.43;;
70199;SDS011;57587;55.688;37.600;2024-01-30T12:17:51;18.95;;;9.55;;
70199;SDS011;57587;55.688;37.600;2024-01-30T12:20:22;18.23;;;9.40;;
70199;SDS011;57587;55.688;37.600;2024-01-30T12:22:50;20.33;;;10.23;;
70199;SDS011;57587;55.688;37.600;2024-01-30T12:25:18;21.05;;;9.38;;
70199;SDS011;57587;55.688;37.600;2024-01-30T12:27:48;17.15;;;9.27;;
70199;SDS011;57587;55.688;37.600;2024-01-30T12:30:19;21.10;;;9.95;;
70199;SDS011;57587;55.688;37.600;2024-01-30T12:32:51;22.83;;;9.10;;
70199;SDS011;57587;55.688;37.600;2024-01-30T12:35:20;20.98;;;9.43;;
70199;SDS011;57587;55.688;37.600;2024-01-30T12:37:48;19.83;;;8.88;;
70199;SDS011;57587;55.688;37.600;2024-01-30T12:40:17;22.08;;;9.60;;
70199;SDS011;57587;55.688;37.600;2024-01-30T12:42:48;19.05;;;9.05;;
70199;SDS011;57587;55.688;37.600;2024-01-30T12:45:18;19.50;;;9.10;;
70199;SDS011;57587;55.688;37.600;2024-01-30T12:47:50;17.33;;;9.35;;
70199;SDS011;57587;55.688;37.600;2024-01-30T12:50:17;20.95;;;10.68;;
70199;SDS011;57587;55.688;37.600;2024-01-30T12:52:45;17.92;;;9.00;;
70199;SDS011;57587;55.688;37.600;2024-01-30T12:55:24;18.05;;;9.20;;
70199;SDS011;57587;55.688;37.600;2024-01-30T12:57:55;21.53;;;8.43;;
70199;SDS011;57587;55.688;37.600;2024-01-30T13:00:22;18.67;;;9.10;;
70199;SDS011;57587;55.688;37.600;2024-01-30T13:02:49;18.20;;;9.50;;
70199;SDS011;57587;55.688;37.600;2024-01-30T13:05:17;16.05;;;8.75;;
70199;SDS011;57587;55.688;37.600;2024-01-30T13:07:44;20.55;;;9.57;;
70199;SDS011;57587;55.688;37.600;2024-01-30T13:10:12;19.33;;;9.07;;
70199;SDS011;57587;55.688;37.600;2024-01-30T13:12:39;18.73;;;9.23;;
70199;SDS011;57587;55.688;37.600;2024-01-30T13:15:09;18.05;;;9.00;;
70199;SDS011;57587;55.688;37.600;2024-01-30T13:17:39;17.05;;;9.40;;
70199;SDS011;57587;55.688;37.600;2024-01-30T13:20:09;19.83;;;8.90;;
70199;SDS011;57587;55.688;37.600;2024-01-30T13:22:40;18.10;;;9.27;;
70199;SDS011;57587;55.688;37.600;2024-01-30T13:25:11;18.42;;;8.52;;
70199;SDS011;57587;55.688;37.600;2024-01-30T13:27:41;20.08;;;9.32;;
70199;SDS011;57587;55.688;37.600;2024-01-30T13:30:14;15.88;;;9.05;;
70199;SDS011;57587;55.688;37.600;2024-01-30T13:32:41;20.83;;;9.63;;
70199;SDS011;57587;55.688;37.600;2024-01-30T13:35:12;21.70;;;9.37;;
70199;SDS011;57587;55.688;37.600;2024-01-30T13:37:40;17.30;;;9.15;;
70199;SDS011;57587;55.688;37.600;2024-01-30T13:40:08;17.17;;;8.57;;
70199;SDS011;57587;55.688;37.600;2024-01-30T13:42:39;15.43;;;9.18;;
70199;SDS011;57587;55.688;37.600;2024-01-30T13:45:07;20.52;;;9.02;;
70199;SDS011;57587;55.688;37.600;2024-01-30T13:47:37;19.57;;;9.17;;
70199;SDS011;57587;55.688;37.600;2024-01-30T13:50:05;20.20;;;8.98;;
70199;SDS011;57587;55.688;37.600;2024-01-30T13:52:33;23.58;;;9.80;;
70199;SDS011;57587;55.688;37.600;2024-01-30T13:55:10;18.42;;;8.30;;
70199;SDS011;57587;55.688;37.600;2024-01-30T13:57:39;25.13;;;9.50;;
70199;SDS011;57587;55.688;37.600;2024-01-30T14:00:07;21.37;;;9.00;;
70199;SDS011;57587;55.688;37.600;2024-01-30T14:02:40;19.45;;;9.07;;
70199;SDS011;57587;55.688;37.600;2024-01-30T14:05:08;18.77;;;8.68;;
70199;SDS011;57587;55.688;37.600;2024-01-30T14:07:46;16.90;;;9.23;;
70199;SDS011;57587;55.688;37.600;2024-01-30T14:10:14;22.63;;;9.15;;
70199;SDS011;57587;55.688;37.600;2024-01-30T14:12:43;17.10;;;9.07;;
70199;SDS011;57587;55.688;37.600;2024-01-30T14:15:14;19.20;;;9.50;;
70199;SDS011;57587;55.688;37.600;2024-01-30T14:17:55;22.45;;;9.95;;
70199;SDS011;57587;55.688;37.600;2024-01-30T14:20:41;19.48;;;8.43;;
70199;SDS011;57587;55.688;37.600;2024-01-30T14:23:09;19.52;;;9.40;;
70199;SDS011;57587;55.688;37.600;2024-01-30T14:28:22;16.80;;;8.68;;
70199;SDS011;57587;55.688;37.600;2024-01-30T14:30:50;22.55;;;10.05;;
70199;SDS011;57587;55.688;37.600;2024-01-30T14:33:18;21.25;;;9.77;;
70199;SDS011;57587;55.688;37.600;2024-01-30T14:35:45;21.55;;;9.55;;